Time;durP1;ratioP1;P1;durP2;ratioP2;P2;SDS_P1;SDS_P2;PMS_P1;PMS_P2;Temp;Humidity;BMP_temperature;BMP_pressure;BME280_temperature;BME280_humidity;BME280_pressure;Samples;Min_cycle;Max_cycle;Signal;HPM_P1;HPM_P2
2023/03/15 00:01:14;;;;;;;10.73;5.30;;;;;;;6.83;48.29;94202.69;4930105;28;20252;-73
2023/03/15 00:03:40;;;;;;;10.93;5.20;;;;;;;6.64;48.88;94206.00;4914843;29;20245;-74
2023/03/15 00:06:05;;;;;;;8.87;4.60;;;;;;;6.61;47.00;94201.22;4948565;28;20387;-73
2023/03/15 00:08:34;;;;;;;9.27;4.73;;;;;;;6.63;47.71;94188.84;4950564;28;20686;-73
2023/03/15 00:10:59;;;;;;;10.97;5.10;;;;;;;6.69;47.44;94182.84;4933507;28;20240;-73
2023/03/15 00:13:25;;;;;;;10.17;4.60;;;;;;;6.63;47.93;94183.63;4976694;28;20726;-73
2023/03/15 00:15:52;;;;;;;11.07;4.60;;;;;;;6.68;47.70;94186.47;4931356;28;20240;-73
2023/03/15 00:18:18;;;;;;;7.93;4.43;;;;;;;6.77;48.12;94193.09;4931173;28;20237;-73
2023/03/15 00:20:44;;;;;;;8.70;4.73;;;;;;;6.85;47.09;94184.31;4965956;28;20293;-73
2023/03/15 00:23:09;;;;;;;9.33;4.60;;;;;;;6.92;47.10;94185.16;4915808;28;20634;-73
2023/03/15 00:25:35;;;;;;;8.73;4.60;;;;;;;6.81;47.12;94191.69;4926650;28;20800;-73
2023/03/15 00:28:00;;;;;;;9.27;4.50;;;;;;;6.81;47.42;94194.28;4928737;28;20276;-74
2023/03/15 00:30:26;;;;;;;8.77;4.70;;;;;;;6.90;46.70;94189.75;4938783;28;20233;-73
2023/03/15 00:32:55;;;;;;;10.40;4.83;;;;;;;6.89;48.31;94185.53;4923841;28;20246;-73
2023/03/15 00:35:20;;;;;;;8.53;4.47;;;;;;;6.89;48.34;94177.72;4962142;28;20232;-73
2023/03/15 00:37:46;;;;;;;8.43;4.70;;;;;;;6.88;47.94;94182.13;4948518;28;20288;-74
2023/03/15 00:40:12;;;;;;;14.57;6.00;;;;;;;6.75;50.39;94174.28;4934396;28;20232;-74
2023/03/15 00:42:38;;;;;;;12.53;5.07;;;;;;;6.77;50.63;94167.91;4946364;28;20225;-73
2023/03/15 00:45:04;;;;;;;10.20;5.17;;;;;;;6.57;49.73;94174.81;4948042;28;20259;-72
2023/03/15 00:47:29;;;;;;;13.90;5.13;;;;;;;6.77;49.85;94167.91;4941747;28;20235;-73
2023/03/15 00:49:56;;;;;;;14.07;6.03;;;;;;;6.85;50.48;94169.53;4946716;28;20844;-73
2023/03/15 00:52:21;;;;;;;11.57;6.00;;;;;;;6.89;51.59;94173.34;4925144;28;20240;-73
2023/03/15 00:54:53;;;;;;;14.93;6.40;;;;;;;6.87;50.78;94167.53;4963561;28;20247;-73
2023/03/15 00:57:19;;;;;;;12.93;6.13;;;;;;;6.82;51.33;94158.69;4946383;28;20228;-74
2023/03/15 00:59:44;;;;;;;12.83;6.40;;;;;;;6.75;50.85;94154.28;4940697;28;20772;-73
2023/03/15 01:02:10;;;;;;;12.67;6.17;;;;;;;6.62;51.03;94153.41;4964514;28;20243;-74
2023/03/15 01:04:35;;;;;;;16.23;6.93;;;;;;;6.67;50.77;94149.25;4920517;28;20677;-74
2023/03/15 01:07:01;;;;;;;15.63;6.70;;;;;;;6.77;51.26;94151.47;4948553;28;20627;-73
2023/03/15 01:09:26;;;;;;;15.23;6.60;;;;;;;6.67;51.90;94144.06;4915495;28;20685;-73
2023/03/15 01:11:52;;;;;;;15.77;7.20;;;;;;;6.63;51.46;94149.84;4946216;28;20241;-73
2023/03/15 01:14:17;;;;;;;16.60;6.77;;;;;;;6.64;51.06;94138.44;4946174;28;20245;-73
2023/03/15 01:16:44;;;;;;;15.03;6.63;;;;;;;6.46;51.94;94140.75;4961640;28;20315;-74
2023/03/15 01:19:10;;;;;;;13.97;6.37;;;;;;;6.55;50.96;94134.41;4941763;28;20331;-74
2023/03/15 01:21:36;;;;;;;16.37;6.90;;;;;;;6.45;51.06;94136.56;4955982;28;20229;-74
2023/03/15 01:24:01;;;;;;;16.90;7.13;;;;;;;6.45;51.73;94134.75;4960917;28;20886;-73
2023/03/15 01:26:27;;;;;;;15.07;7.17;;;;;;;6.45;51.50;94129.56;4926620;28;20306;-73
2023/03/15 01:28:53;;;;;;;16.00;6.60;;;;;;;6.39;51.50;94129.53;4963910;28;20236;-73
2023/03/15 01:31:29;;;;;;;14.53;6.70;;;;;;;6.31;51.61;94127.09;4944515;28;20228;-73
2023/03/15 01:33:55;;;;;;;19.17;7.10;;;;;;;6.31;51.60;94122.69;4933806;28;20624;-72
2023/03/15 01:36:20;;;;;;;19.57;7.27;;;;;;;6.37;51.87;94126.34;4939659;28;20252;-73
2023/03/15 01:38:48;;;;;;;15.50;6.67;;;;;;;6.42;50.23;94132.56;4962251;28;20261;-73
2023/03/15 01:41:14;;;;;;;14.90;6.90;;;;;;;6.43;51.78;94120.34;4933682;28;20725;-74
2023/03/15 01:43:45;;;;;;;17.47;6.30;;;;;;;6.35;52.50;94116.16;4943384;28;20758;-73
2023/03/15 01:46:28;;;;;;;15.83;6.50;;;;;;;6.36;51.80;94103.94;4929082;28;20246;-73
2023/03/15 01:49:12;;;;;;;16.93;7.00;;;;;;;6.24;51.74;94106.28;4928716;28;20229;-73
2023/03/15 01:51:45;;;;;;;14.80;6.53;;;;;;;6.26;51.85;94104.28;4947440;28;20316;-73
2023/03/15 01:54:27;;;;;;;14.53;6.70;;;;;;;6.30;52.17;94099.53;4922781;28;20307;-75
2023/03/15 01:56:56;;;;;;;17.93;6.90;;;;;;;6.23;53.51;94094.31;4948473;28;20240;-74
2023/03/15 01:59:33;;;;;;;15.23;6.90;;;;;;;6.24;52.19;94088.09;4960526;28;20713;-74
2023/03/15 02:01:59;;;;;;;17.30;7.27;;;;;;;6.23;52.87;94099.50;4914457;28;20274;-73
2023/03/15 02:04:28;;;;;;;18.70;7.30;;;;;;;6.25;52.81;94094.09;4917475;28;20665;-74
2023/03/15 02:06:58;;;;;;;19.70;7.40;;;;;;;6.23;52.56;94089.09;4926415;28;20288;-73
2023/03/15 02:09:24;;;;;;;18.30;7.67;;;;;;;6.26;52.83;94088.69;4949300;28;20229;-74
2023/03/15 02:11:50;;;;;;;21.73;7.53;;;;;;;6.22;53.41;94077.09;4951077;28;20260;-73
2023/03/15 02:14:15;;;;;;;20.30;7.53;;;;;;;6.11;53.28;94075.06;4933604;28;20340;-72
2023/03/15 02:16:41;;;;;;;18.50;7.50;;;;;;;5.89;54.19;94071.75;4942019;28;20237;-72
2023/03/15 02:19:09;;;;;;;18.83;7.60;;;;;;;5.87;54.91;94075.53;4925227;28;20743;-72
2023/03/15 02:21:50;;;;;;;19.63;7.80;;;;;;;5.65;55.73;94066.19;4939660;28;20235;-73
2023/03/15 02:24:43;;;;;;;16.10;7.00;;;;;;;5.75;53.59;94058.88;4942154;28;20334;-73
2023/03/15 02:27:08;;;;;;;17.50;6.83;;;;;;;5.66;55.03;94057.41;4933012;28;20299;-73
2023/03/15 02:29:34;;;;;;;16.80;7.00;;;;;;;5.70;54.67;94064.63;4933674;28;20238;-73
2023/03/15 02:31:59;;;;;;;14.17;6.93;;;;;;;5.79;53.35;94065.25;4921715;28;20229;-72
2023/03/15 02:34:25;;;;;;;13.97;7.03;;;;;;;5.67;54.45;94056.41;4946205;28;20232;-72
2023/03/15 02:36:50;;;;;;;16.90;6.70;;;;;;;5.82;53.69;94059.69;4962554;28;20256;-72
2023/03/15 02:39:18;;;;;;;14.97;6.30;;;;;;;5.92;53.04;94055.78;4939997;28;20263;-72
2023/03/15 02:41:54;;;;;;;12.77;5.80;;;;;;;5.89;52.13;94068.34;4936992;28;20279;-72
2023/03/15 02:44:26;;;;;;;14.23;6.37;;;;;;;5.92;52.24;94068.75;4934544;28;20232;-73
2023/03/15 02:46:52;;;;;;;12.93;6.30;;;;;;;5.67;52.26;94061.59;4949642;28;20303;-74
2023/03/15 02:49:18;;;;;;;15.37;5.90;;;;;;;5.67;53.27;94059.00;4947732;28;20228;-72
2023/03/15 02:51:43;;;;;;;12.20;5.77;;;;;;;5.47;53.99;94057.09;4924149;28;20232;-73
2023/03/15 02:54:09;;;;;;;11.67;5.73;;;;;;;5.50;52.77;94050.72;4945768;28;20241;-73
2023/03/15 02:56:34;;;;;;;11.33;5.53;;;;;;;5.35;53.35;94044.81;4942335;28;20225;-73
2023/03/15 02:59:00;;;;;;;10.23;5.13;;;;;;;5.34;53.11;94041.44;4967288;28;20237;-73
2023/03/15 03:01:25;;;;;;;9.93;5.10;;;;;;;5.33;52.94;94037.22;4947335;28;20319;-74
2023/03/15 03:03:50;;;;;;;12.30;5.30;;;;;;;5.44;53.05;94043.72;4919955;28;20276;-72
2023/03/15 03:06:16;;;;;;;9.97;5.10;;;;;;;5.50;53.01;94036.94;4926090;28;20248;-73
2023/03/15 03:08:45;;;;;;;10.83;5.13;;;;;;;5.46;53.68;94041.72;4935029;28;20237;-73
2023/03/15 03:11:12;;;;;;;11.03;5.13;;;;;;;5.50;52.68;94044.72;4962290;28;20243;-73
2023/03/15 03:13:37;;;;;;;13.73;5.30;;;;;;;5.39;53.17;94033.09;4954900;28;20235;-72
2023/03/15 03:16:03;;;;;;;13.50;5.20;;;;;;;5.41;52.35;94024.13;4962732;28;20289;-73
2023/03/15 03:18:29;;;;;;;11.37;5.13;;;;;;;5.31;53.34;94021.06;4922293;28;20284;-73
2023/03/15 03:20:55;;;;;;;11.13;5.20;;;;;;;5.41;54.50;94026.72;4919348;28;20309;-73
2023/03/15 03:23:24;;;;;;;10.87;5.37;;;;;;;5.33;53.40;94019.06;4937834;28;20235;-73
2023/03/15 03:25:53;;;;;;;9.97;4.80;;;;;;;5.32;52.98;94017.50;4968609;28;20922;-73
2023/03/15 03:28:28;;;;;;;8.87;4.80;;;;;;;5.30;53.47;94022.03;4929765;28;20275;-72
2023/03/15 03:30:53;;;;;;;10.87;5.10;;;;;;;5.37;53.92;94020.28;4934954;28;20232;-73
2023/03/15 03:33:20;;;;;;;9.63;5.00;;;;;;;5.42;54.98;94017.16;4947366;28;20232;-73
2023/03/15 03:35:45;;;;;;;10.77;5.00;;;;;;;5.26;57.28;94009.63;4932603;28;20236;-73
2023/03/15 03:38:11;;;;;;;10.60;4.80;;;;;;;5.29;56.67;94009.28;4948998;28;20608;-73
2023/03/15 03:40:37;;;;;;;10.87;4.93;;;;;;;5.29;55.10;93998.91;4951157;28;20724;-73
2023/03/15 03:43:03;;;;;;;12.47;5.10;;;;;;;5.34;55.46;93997.34;4959491;28;20255;-73
2023/03/15 03:45:28;;;;;;;10.67;4.87;;;;;;;5.27;53.97;93991.31;4943388;28;20308;-74
2023/03/15 03:47:53;;;;;;;10.10;4.93;;;;;;;5.41;54.07;94000.78;4940277;28;20274;-74
2023/03/15 03:50:19;;;;;;;9.37;5.00;;;;;;;5.29;53.86;94004.88;4947465;28;20784;-74
2023/03/15 03:52:45;;;;;;;12.60;5.00;;;;;;;5.32;53.76;94001.94;4962987;28;20248;-73
2023/03/15 03:55:13;;;;;;;10.80;5.20;;;;;;;5.43;53.92;93988.41;4928284;28;20330;-72
2023/03/15 03:57:40;;;;;;;11.20;5.23;;;;;;;5.38;54.41;93997.75;4929600;28;20224;-73
2023/03/15 04:00:06;;;;;;;11.60;5.00;;;;;;;5.37;53.82;93993.56;4928926;28;20232;-73
2023/03/15 04:02:32;;;;;;;11.63;4.97;;;;;;;5.45;54.35;93993.41;4935216;28;20239;-72
2023/03/15 04:04:58;;;;;;;11.30;5.27;;;;;;;5.34;53.89;93993.94;4978578;28;20229;-72
2023/03/15 04:07:23;;;;;;;11.77;5.63;;;;;;;5.28;54.76;93987.72;4934637;28;20641;-74
2023/03/15 04:09:49;;;;;;;9.30;5.30;;;;;;;5.41;54.30;93980.03;4951122;28;20260;-73
2023/03/15 04:12:15;;;;;;;10.80;5.47;;;;;;;5.44;54.87;93984.03;4965707;28;20233;-74
2023/03/15 04:14:40;;;;;;;11.17;5.27;;;;;;;5.53;54.12;93987.25;4949508;28;20233;-74
2023/03/15 04:17:07;;;;;;;9.97;5.17;;;;;;;5.39;53.99;93976.81;4960286;28;20228;-73
2023/03/15 04:19:33;;;;;;;13.33;5.40;;;;;;;5.36;54.75;93974.59;4948229;28;20237;-70
2023/03/15 04:22:05;;;;;;;12.13;5.63;;;;;;;5.43;55.21;93978.03;4925100;28;20291;-72
2023/03/15 04:24:33;;;;;;;11.87;5.53;;;;;;;5.51;54.47;93965.91;4969076;28;20236;-73
2023/03/15 04:26:59;;;;;;;7.83;5.00;;;;;;;5.62;54.34;93978.31;4943120;28;20240;-73
2023/03/15 04:29:25;;;;;;;10.97;5.20;;;;;;;5.47;55.51;93974.06;4947184;28;20763;-73
2023/03/15 04:31:50;;;;;;;9.37;5.10;;;;;;;5.49;55.85;93976.47;4951512;28;20240;-72
2023/03/15 04:34:15;;;;;;;10.97;5.50;;;;;;;5.47;55.52;93970.66;4929374;28;20240;-73
2023/03/15 04:36:41;;;;;;;11.77;5.50;;;;;;;5.44;56.36;93966.66;4945088;28;20245;-73
2023/03/15 04:39:08;;;;;;;11.00;5.30;;;;;;;5.45;56.97;93970.03;4937839;28;20245;-73
2023/03/15 04:41:34;;;;;;;11.70;5.27;;;;;;;5.46;58.04;93961.28;4916796;28;20232;-72
2023/03/15 04:44:03;;;;;;;11.70;5.13;;;;;;;5.53;57.92;93971.69;4959416;28;20314;-73
2023/03/15 04:46:32;;;;;;;11.77;5.83;;;;;;;5.53;57.43;93975.09;4956424;28;20629;-73
2023/03/15 04:48:58;;;;;;;12.43;5.40;;;;;;;5.54;56.70;93974.09;4978351;28;20247;-73
2023/03/15 04:51:24;;;;;;;12.53;5.57;;;;;;;5.59;55.78;93974.31;4961037;28;20236;-72
2023/03/15 04:53:49;;;;;;;9.73;5.83;;;;;;;5.62;56.24;93970.53;4961462;28;20333;-73
2023/03/15 04:56:15;;;;;;;11.87;5.80;;;;;;;5.63;55.99;93977.34;4906342;28;20682;-72
2023/03/15 04:58:40;;;;;;;12.27;6.47;;;;;;;5.63;55.26;93978.16;4941317;28;20860;-73
2023/03/15 05:01:06;;;;;;;13.20;6.70;;;;;;;5.52;54.72;93970.09;4950608;28;20229;-72
2023/03/15 05:03:31;;;;;;;13.33;7.27;;;;;;;5.46;56.03;93963.88;4934674;28;20236;-73
2023/03/15 05:05:56;;;;;;;16.07;7.10;;;;;;;5.31;57.18;93966.59;4933308;28;20913;-73
2023/03/15 05:08:22;;;;;;;11.37;6.67;;;;;;;5.45;57.92;93970.03;4966202;28;20228;-73
2023/03/15 05:10:48;;;;;;;16.27;7.47;;;;;;;5.52;58.32;93976.06;4946704;28;20228;-72
2023/03/15 05:13:13;;;;;;;18.83;7.40;;;;;;;5.61;57.65;93974.13;4967782;28;20695;-73
2023/03/15 05:15:39;;;;;;;14.33;6.43;;;;;;;5.60;57.61;93983.72;4940314;28;20642;-72
2023/03/15 05:18:04;;;;;;;16.80;6.60;;;;;;;5.78;57.46;93971.00;4910075;28;20228;-73
2023/03/15 05:20:30;;;;;;;16.83;6.53;;;;;;;5.80;57.47;93974.22;4940556;28;20238;-73
2023/03/15 05:22:56;;;;;;;13.13;6.57;;;;;;;5.85;56.84;93976.28;4946066;28;20225;-72
2023/03/15 05:25:23;;;;;;;12.93;6.60;;;;;;;5.87;57.24;93969.91;4930123;28;20226;-72
2023/03/15 05:27:48;;;;;;;14.53;6.60;;;;;;;5.97;56.69;93970.31;4972812;28;20237;-72
2023/03/15 05:30:15;;;;;;;14.50;6.07;;;;;;;5.99;56.47;93973.50;4936683;28;20232;-73
2023/03/15 05:32:43;;;;;;;14.90;6.63;;;;;;;6.05;57.20;93970.16;4927098;28;20706;-72
2023/03/15 05:35:09;;;;;;;14.80;5.93;;;;;;;5.99;55.53;93959.75;4955650;28;20239;-72
2023/03/15 05:37:35;;;;;;;19.13;5.90;;;;;;;5.99;55.63;93954.56;4949434;28;20287;-72
2023/03/15 05:40:00;;;;;;;11.07;5.60;;;;;;;5.93;55.34;93960.50;4928487;28;20260;-73
2023/03/15 05:42:26;;;;;;;13.87;5.50;;;;;;;6.11;55.23;93955.59;4942928;28;20229;-73
2023/03/15 05:44:55;;;;;;;13.33;5.13;;;;;;;5.93;53.51;93963.09;4948111;28;20705;-73
2023/03/15 05:47:20;;;;;;;10.93;4.90;;;;;;;6.00;53.09;93967.31;4950539;28;20228;-73
2023/03/15 05:49:46;;;;;;;10.97;4.40;;;;;;;6.23;53.55;93964.41;4929524;28;20291;-73
2023/03/15 05:52:12;;;;;;;10.00;4.33;;;;;;;6.02;51.80;93959.34;4962167;28;20314;-73
2023/03/15 05:54:38;;;;;;;11.47;4.40;;;;;;;5.99;51.95;93957.94;4926125;28;20927;-73
2023/03/15 05:57:03;;;;;;;13.40;4.30;;;;;;;5.91;52.56;93957.31;4950964;28;20240;-73
2023/03/15 05:59:29;;;;;;;8.80;4.50;;;;;;;6.05;52.37;93951.16;4921626;28;20702;-73
2023/03/15 06:01:55;;;;;;;12.70;4.87;;;;;;;6.11;52.63;93960.78;4943613;28;20653;-73
2023/03/15 06:04:21;;;;;;;14.30;4.50;;;;;;;6.17;52.31;93962.59;4916070;28;20232;-74
2023/03/15 06:06:47;;;;;;;10.60;5.00;;;;;;;6.08;52.81;93963.75;4933260;28;20821;-73
2023/03/15 06:09:12;;;;;;;11.27;4.90;;;;;;;5.92;52.62;93959.69;4953963;28;20247;-72
2023/03/15 06:11:37;;;;;;;11.97;4.97;;;;;;;6.09;52.68;93957.56;4940002;28;20231;-72
2023/03/15 06:14:03;;;;;;;14.60;5.40;;;;;;;5.92;53.66;93957.09;4933380;28;20316;-73
2023/03/15 06:16:28;;;;;;;12.73;5.63;;;;;;;5.92;53.45;93954.50;4947804;28;20240;-71
2023/03/15 06:18:54;;;;;;;13.37;5.70;;;;;;;6.17;53.33;93953.97;4918619;28;20271;-72
2023/03/15 06:21:19;;;;;;;14.33;6.00;;;;;;;6.20;53.22;93958.78;4919020;28;20231;-70
2023/03/15 06:23:45;;;;;;;16.87;6.17;;;;;;;6.39;53.04;93961.44;4941715;28;20233;-70
2023/03/15 06:26:13;;;;;;;17.13;6.27;;;;;;;6.58;52.91;93967.66;4974695;28;20264;-71
2023/03/15 06:28:40;;;;;;;12.97;5.83;;;;;;;6.81;52.39;93962.88;4933430;28;20231;-72
2023/03/15 06:31:10;;;;;;;13.40;5.70;;;;;;;7.06;52.09;93965.66;4942596;28;20244;-71
2023/03/15 06:33:35;;;;;;;13.37;6.27;;;;;;;7.12;52.14;93962.25;4948363;28;20290;-71
2023/03/15 06:36:01;;;;;;;21.17;6.60;;;;;;;7.00;51.89;93950.88;4948830;28;20232;-72
2023/03/15 06:38:27;;;;;;;20.03;6.30;;;;;;;7.17;51.84;93942.44;4940742;28;20296;-70
2023/03/15 06:40:52;;;;;;;13.47;6.10;;;;;;;7.04;52.05;93949.47;4925722;28;20685;-71
2023/03/15 06:43:18;;;;;;;14.40;6.57;;;;;;;7.27;51.76;93963.66;4947575;28;20646;-72
2023/03/15 06:45:45;;;;;;;17.13;6.80;;;;;;;7.37;52.10;93960.63;4916504;28;20251;-72
2023/03/15 06:48:11;;;;;;;15.17;6.87;;;;;;;7.47;51.62;93945.41;4942229;28;20226;-72
2023/03/15 06:50:37;;;;;;;17.67;6.97;;;;;;;7.59;50.85;93941.16;4942801;28;20232;-71
2023/03/15 06:53:02;;;;;;;18.83;6.80;;;;;;;7.93;51.49;93943.41;4944465;28;21042;-72
2023/03/15 06:55:28;;;;;;;16.03;6.93;;;;;;;7.99;49.90;93957.44;4954133;28;20233;-72
2023/03/15 06:57:53;;;;;;;20.80;7.33;;;;;;;8.18;50.75;93961.75;4927065;28;20269;-71
2023/03/15 07:00:19;;;;;;;17.50;6.97;;;;;;;8.06;50.61;93951.19;4919428;28;20310;-70
2023/03/15 07:02:45;;;;;;;18.00;7.10;;;;;;;8.02;50.93;93949.19;4932784;28;20268;-71
2023/03/15 07:05:10;;;;;;;16.97;7.17;;;;;;;7.89;51.12;93939.63;4933887;28;20674;-72
2023/03/15 07:07:35;;;;;;;18.17;6.80;;;;;;;7.77;51.80;93936.06;4934168;28;20248;-71
2023/03/15 07:10:01;;;;;;;17.00;6.70;;;;;;;7.68;52.42;93939.13;4934113;28;20679;-72
2023/03/15 07:12:27;;;;;;;19.93;7.53;;;;;;;8.08;51.90;93941.34;4918243;28;20320;-72
2023/03/15 07:14:52;;;;;;;17.37;7.67;;;;;;;8.31;50.82;93940.06;4926495;28;20272;-72
2023/03/15 07:17:18;;;;;;;15.33;6.90;;;;;;;8.26;50.05;93939.84;4931083;28;20235;-72
2023/03/15 07:19:43;;;;;;;15.53;6.83;;;;;;;8.14;51.08;93932.69;4928443;28;20249;-70
2023/03/15 07:22:09;;;;;;;15.23;6.17;;;;;;;8.60;50.53;93932.44;4930347;28;20260;-70
2023/03/15 07:24:34;;;;;;;18.37;6.80;;;;;;;8.78;49.51;93944.75;4927429;28;20700;-70
2023/03/15 07:27:00;;;;;;;15.70;7.23;;;;;;;8.72;49.39;93945.59;4974071;28;20319;-70
2023/03/15 07:29:25;;;;;;;11.13;5.10;;;;;;;8.95;49.48;93943.22;4973840;28;20615;-71
2023/03/15 07:31:51;;;;;;;12.87;5.90;;;;;;;9.02;48.76;93940.53;4940952;28;20291;-71
2023/03/15 07:34:16;;;;;;;13.13;6.03;;;;;;;9.36;48.75;93945.28;4940465;28;20228;-69
2023/03/15 07:36:42;;;;;;;10.53;5.00;;;;;;;9.56;48.25;93945.03;4936639;28;20252;-69
2023/03/15 07:39:07;;;;;;;9.83;4.60;;;;;;;9.81;48.48;93930.13;4944583;28;20233;-70
2023/03/15 07:41:33;;;;;;;12.90;5.00;;;;;;;9.64;46.87;93944.78;4948401;28;20271;-69
2023/03/15 07:43:58;;;;;;;12.17;5.50;;;;;;;9.90;46.16;93947.09;4918465;28;20248;-71
2023/03/15 07:46:24;;;;;;;10.97;5.37;;;;;;;9.90;45.90;93945.28;4915134;28;20249;-70
2023/03/15 07:48:49;;;;;;;9.23;5.07;;;;;;;10.19;45.00;93938.53;4934767;28;20240;-70
2023/03/15 07:51:14;;;;;;;11.60;5.27;;;;;;;10.31;46.34;93943.78;4934813;28;20233;-68
2023/03/15 07:53:40;;;;;;;10.20;4.73;;;;;;;10.32;44.93;93935.72;4920284;28;20236;-70
2023/03/15 07:56:06;;;;;;;11.90;5.10;;;;;;;10.11;46.60;93933.56;4933029;28;20226;-70
2023/03/15 07:58:31;;;;;;;10.00;4.63;;;;;;;9.48;46.66;93927.88;4936045;28;20279;-70
2023/03/15 08:00:57;;;;;;;14.00;5.10;;;;;;;9.44;46.84;93927.50;4934262;28;20307;-70
2023/03/15 08:03:23;;;;;;;10.67;5.10;;;;;;;9.30;47.42;93933.88;4930577;28;20232;-71
2023/03/15 08:05:49;;;;;;;10.63;4.77;;;;;;;9.63;46.76;93928.28;4923133;28;20240;-70
2023/03/15 08:08:15;;;;;;;11.47;4.83;;;;;;;9.77;46.70;93921.09;4927029;28;20699;-70
2023/03/15 08:10:42;;;;;;;12.67;5.63;;;;;;;9.61;46.85;93913.84;4910935;28;20240;-70
2023/03/15 08:13:07;;;;;;;9.97;5.00;;;;;;;9.62;46.78;93918.88;4913325;28;20220;-70
2023/03/15 08:15:33;;;;;;;9.03;5.43;;;;;;;9.94;47.16;93909.03;4900378;28;20264;-71
2023/03/15 08:17:59;;;;;;;12.87;5.00;;;;;;;10.02;46.60;93899.09;4960091;28;20252;-69
2023/03/15 08:20:24;;;;;;;12.23;5.00;;;;;;;9.78;46.25;93904.41;4947788;28;20239;-70
2023/03/15 08:22:50;;;;;;;11.20;4.93;;;;;;;9.93;47.43;93891.78;4964762;28;20240;-71
2023/03/15 08:25:17;;;;;;;10.70;4.80;;;;;;;10.18;46.71;93889.84;4946521;28;20224;-70
2023/03/15 08:27:43;;;;;;;11.07;4.70;;;;;;;10.41;46.13;93895.16;4951925;28;20239;-71
2023/03/15 08:30:11;;;;;;;12.60;4.80;;;;;;;10.72;47.42;93894.88;4931391;28;20233;-70
2023/03/15 08:32:38;;;;;;;10.20;5.30;;;;;;;10.47;46.15;93894.28;4946467;28;20228;-70
2023/03/15 08:35:04;;;;;;;9.77;4.83;;;;;;;10.59;45.74;93887.25;4905089;28;20822;-70
2023/03/15 08:37:29;;;;;;;8.93;4.80;;;;;;;10.43;45.20;93895.75;4931248;28;20741;-70
2023/03/15 08:39:56;;;;;;;11.57;4.83;;;;;;;10.63;45.64;93901.47;4914345;28;20237;-70
2023/03/15 08:42:22;;;;;;;15.73;5.10;;;;;;;10.61;44.79;93898.28;4926145;28;20259;-71
2023/03/15 08:44:48;;;;;;;11.63;4.90;;;;;;;10.71;44.96;93890.69;4904723;28;20237;-70
2023/03/15 08:47:13;;;;;;;11.60;4.90;;;;;;;10.83;44.33;93886.25;4931421;28;20237;-73
2023/03/15 08:49:39;;;;;;;10.33;4.80;;;;;;;11.11;44.51;93876.91;4956622;28;20373;-70
2023/03/15 08:52:04;;;;;;;11.73;4.80;;;;;;;10.99;45.00;93883.97;4940686;28;20994;-74
2023/03/15 08:54:30;;;;;;;10.80;4.60;;;;;;;11.13;45.22;93890.59;4936217;28;20231;-74
2023/03/15 08:56:55;;;;;;;10.90;4.50;;;;;;;10.99;45.16;93899.69;4943004;28;20248;-70
2023/03/15 08:59:21;;;;;;;7.40;4.40;;;;;;;10.99;45.42;93890.00;4949405;28;20235;-70
2023/03/15 09:01:46;;;;;;;9.63;4.63;;;;;;;10.75;45.01;93893.63;4933728;28;20637;-73
2023/03/15 09:04:12;;;;;;;8.47;4.50;;;;;;;10.64;45.03;93902.25;4962701;28;20236;-71
2023/03/15 09:06:38;;;;;;;10.07;4.53;;;;;;;10.95;44.31;93895.94;4931023;28;20683;-72
2023/03/15 09:09:03;;;;;;;8.97;4.70;;;;;;;10.97;44.05;93889.44;4963352;28;20236;-74
2023/03/15 09:11:29;;;;;;;8.40;4.47;;;;;;;11.41;44.16;93898.56;4946192;28;20226;-73
2023/03/15 09:13:54;;;;;;;11.07;4.50;;;;;;;11.57;43.94;93899.66;4943774;28;20980;-71
2023/03/15 09:16:20;;;;;;;8.80;4.70;;;;;;;11.37;44.16;93897.41;4941920;28;20240;-69
2023/03/15 09:18:45;;;;;;;10.83;4.63;;;;;;;11.38;43.70;93891.97;4963736;28;20236;-70
2023/03/15 09:21:11;;;;;;;8.83;5.00;;;;;;;11.08;44.52;93900.97;4950674;28;20269;-70
2023/03/15 09:23:36;;;;;;;8.43;3.97;;;;;;;11.13;45.07;93895.84;4963979;28;20241;-71
2023/03/15 09:26:02;;;;;;;12.13;4.37;;;;;;;11.07;44.24;93894.94;4947695;28;20326;-73
2023/03/15 09:28:28;;;;;;;9.13;4.23;;;;;;;11.18;45.71;93901.16;4947223;28;20240;-70
2023/03/15 09:30:53;;;;;;;10.30;4.40;;;;;;;11.21;44.65;93898.91;4932195;28;20243;-70
2023/03/15 09:33:21;;;;;;;9.57;4.70;;;;;;;11.23;45.47;93896.84;4935094;28;20246;-74
2023/03/15 09:35:53;;;;;;;12.47;4.70;;;;;;;11.43;46.33;93888.66;4927689;28;20405;-70
2023/03/15 09:38:19;;;;;;;8.50;4.10;;;;;;;11.34;43.92;93887.41;4935102;28;20241;-69
2023/03/15 09:40:45;;;;;;;11.30;4.20;;;;;;;11.45;43.95;93883.97;4945840;28;20278;-70
2023/03/15 09:43:27;;;;;;;12.13;4.67;;;;;;;11.39;44.76;93882.28;4943420;28;20967;-69
2023/03/15 09:46:10;;;;;;;9.33;4.80;;;;;;;11.88;43.13;93871.25;4945389;28;20236;-74
2023/03/15 09:48:45;;;;;;;9.97;4.50;;;;;;;11.77;43.71;93872.09;4935204;28;20323;-75
2023/03/15 09:51:18;;;;;;;12.17;4.53;;;;;;;11.68;43.42;93870.84;4947301;28;20235;-70
2023/03/15 09:53:53;;;;;;;8.80;4.90;;;;;;;11.83;43.60;93873.78;4930748;28;20249;-73
2023/03/15 09:56:44;;;;;;;9.27;4.80;;;;;;;11.34;43.81;93861.22;4937964;28;20296;-74
2023/03/15 09:59:10;;;;;;;9.73;5.00;;;;;;;11.51;43.41;93856.88;4949107;28;20248;-72
2023/03/15 10:01:39;;;;;;;9.63;5.00;;;;;;;11.64;43.18;93855.78;4963287;28;20228;-73
2023/03/15 10:04:12;;;;;;;12.87;5.00;;;;;;;11.70;43.61;93866.16;4942104;28;20327;-74
2023/03/15 10:06:38;;;;;;;10.83;5.23;;;;;;;11.87;43.25;93856.53;4927745;28;20260;-70
2023/03/15 10:09:09;;;;;;;13.00;5.40;;;;;;;11.66;43.43;93867.63;4973696;28;20658;-70
2023/03/15 10:12:03;;;;;;;10.43;5.30;;;;;;;11.64;43.08;93872.31;4950633;28;20240;-70
2023/03/15 10:14:47;;;;;;;9.17;4.30;;;;;;;11.37;43.39;93869.41;4941547;28;20237;-74
2023/03/15 10:17:15;;;;;;;12.43;4.83;;;;;;;11.49;43.90;93861.50;4943818;28;20241;-70
2023/03/15 10:19:51;;;;;;;9.07;4.50;;;;;;;11.85;44.39;93863.84;4924454;28;20237;-70
2023/03/15 10:22:44;;;;;;;9.03;4.67;;;;;;;11.98;42.88;93868.84;4979545;28;20252;-73
2023/03/15 10:25:24;;;;;;;10.53;4.70;;;;;;;11.74;43.49;93874.38;4978800;28;20232;-72
2023/03/15 10:27:56;;;;;;;12.73;4.70;;;;;;;12.16;42.91;93866.03;4958217;28;20244;-73
2023/03/15 10:30:32;;;;;;;10.53;4.40;;;;;;;12.17;42.38;93864.19;4942056;28;20766;-70
2023/03/15 10:33:18;;;;;;;10.83;4.67;;;;;;;11.75;43.07;93863.66;4950279;28;20237;-69
2023/03/15 10:35:43;;;;;;;10.57;4.60;;;;;;;11.56;42.87;93848.31;4943675;28;20629;-72
2023/03/15 10:38:15;;;;;;;14.33;6.10;;;;;;;11.88;43.70;93846.88;4975007;28;20236;-73
2023/03/15 10:40:41;;;;;;;10.73;5.10;;;;;;;11.89;42.92;93854.47;4948832;28;20256;-70
2023/03/15 10:43:22;;;;;;;11.00;4.73;;;;;;;11.75;43.21;93871.50;4941630;28;20243;-72
2023/03/15 10:46:04;;;;;;;12.70;5.20;;;;;;;11.66;43.63;93859.78;4937412;28;20682;-72
2023/03/15 10:48:34;;;;;;;15.07;8.00;;;;;;;11.85;43.72;93863.84;4954019;28;20234;-73
2023/03/15 10:51:05;;;;;;;14.53;5.40;;;;;;;11.85;42.75;93849.94;4949815;28;20275;-76
2023/03/15 10:53:30;;;;;;;11.17;5.50;;;;;;;11.90;43.09;93845.59;4941994;28;20319;-73
2023/03/15 10:56:00;;;;;;;15.70;6.03;;;;;;;12.01;41.81;93847.38;4949152;28;20803;-70
2023/03/15 10:58:29;;;;;;;11.97;5.53;;;;;;;12.04;42.67;93854.78;4948040;28;20236;-70
2023/03/15 11:01:06;;;;;;;8.67;4.97;;;;;;;12.03;42.71;93853.19;4946430;28;20287;-70
2023/03/15 11:03:31;;;;;;;8.80;4.57;;;;;;;12.16;42.82;93862.59;4933937;28;20245;-70
2023/03/15 11:05:57;;;;;;;10.50;4.80;;;;;;;12.04;42.82;93849.53;4947111;28;20236;-71
2023/03/15 11:08:39;;;;;;;10.37;4.73;;;;;;;11.93;43.98;93853.00;4937585;28;20237;-70
2023/03/15 11:11:05;;;;;;;8.83;4.80;;;;;;;11.79;43.55;93846.44;4965139;28;20313;-69
2023/03/15 11:13:32;;;;;;;10.97;4.80;;;;;;;11.73;42.94;93836.88;4950994;28;20320;-71
2023/03/15 11:16:11;;;;;;;12.00;4.50;;;;;;;11.48;43.29;93844.22;4950343;28;20292;-73
2023/03/15 11:18:48;;;;;;;10.97;4.40;;;;;;;11.60;43.14;93834.50;4933292;28;20232;-70
2023/03/15 11:21:14;;;;;;;14.70;5.10;;;;;;;11.72;43.16;93834.50;4940491;28;20240;-72
2023/03/15 11:23:45;;;;;;;13.43;4.70;;;;;;;11.72;43.99;93840.53;4939071;28;20248;-71
2023/03/15 11:26:20;;;;;;;12.77;4.50;;;;;;;11.85;43.17;93837.63;4923675;28;20747;-70
2023/03/15 11:28:55;;;;;;;11.23;4.70;;;;;;;11.91;42.88;93834.09;4947069;28;20694;-71
2023/03/15 11:31:23;;;;;;;9.23;4.70;;;;;;;11.95;42.40;93843.06;4951825;28;20220;-69
2023/03/15 11:33:58;;;;;;;10.07;4.67;;;;;;;11.95;42.94;93834.41;4940110;28;21258;-71